PWSweather.com
Personal Weather Stations
Station Observations
KCOBOOMER
Belmont, Pueblo, CO 81001

BelmontPueblo, CO 81001

Lat: 38.2977486, Lon: -104.5754318

Elevation: 4795

Station Type: Davis Vantage Pro 2

http://www.puebloweather.net

Latest ConditionsUpdated 6:43:55 PM MDT Sunday, Mar 26, 2017
Currently Today's Max Today's Min Today's Average
Temperature 52.2°F11.2°C 59.4°F15.2°C 43.0°F6.1°C 49.6°F9.8°C
Dew Point 38.3°F3.5°C 39.6°F4.2°C 28.4°F-2.0°C 33.3°F0.7°C
Winds 0.4 mph NW0.6 kmh NW 32.7 mph NW52.6 kmh NW - 13.0 mph 20.9 kmh
Wind Gusts 10.5 mph16.9 kmh 55.3 mph89.0 kmh - -
Humidity 59% 78% 37% 54%
Pressure 29.88 in1011.9 mb 29.88 in1011.9 mb 29.65 in1004.1 mb -
Hour Temp Dew Point Humidity Winds Wind Gusts Pressure Precip Precip Rate Daily Precip Total
06:43 PM 52.2°F11.2°C 38.3°F3.5°C 59% 0.4 mph NW0.6 kmh NW 10.5 mph16.9 kmh 29.88 in1011.9 mb 0.00 in0.0 mm 0.00 in0.0 mm 0.00 in0.0 mm
06:38 PM 52.2°F11.2°C 38.3°F3.5°C 59% 5.4 mph NW8.7 kmh NW 12.8 mph20.6 kmh 29.88 in1011.9 mb 0.00 in0.0 mm 0.00 in0.0 mm 0.00 in0.0 mm
06:33 PM 52.3°F11.3°C 37.9°F3.3°C 58% 8.5 mph NW13.7 kmh NW 15.9 mph25.6 kmh 29.88 in1011.9 mb 0.00 in0.0 mm 0.00 in0.0 mm 0.00 in0.0 mm
06:28 PM 52.3°F11.3°C 37.9°F3.3°C 58% 10.7 mph N17.2 kmh N 14.8 mph23.8 kmh 29.88 in1011.9 mb 0.00 in0.0 mm 0.00 in0.0 mm 0.00 in0.0 mm
06:23 PM 52.2°F11.2°C 38.3°F3.5°C 59% 7.4 mph N11.9 kmh N 17.0 mph27.4 kmh 29.88 in1011.9 mb 0.00 in0.0 mm 0.00 in0.0 mm 0.00 in0.0 mm
06:18 PM 52.2°F11.2°C 37.8°F3.2°C 58% 13.6 mph 21.9 kmh 19.0 mph30.6 kmh 29.88 in1011.9 mb 0.00 in0.0 mm 0.00 in0.0 mm 0.00 in0.0 mm
06:13 PM 52.3°F11.3°C 38.5°F3.6°C 59% 8.5 mph NNW13.7 kmh NNW 17.0 mph27.4 kmh 29.88 in1011.9 mb 0.00 in0.0 mm 0.00 in0.0 mm 0.00 in0.0 mm
06:08 PM 52.5°F11.4°C 38.7°F3.7°C 59% 10.5 mph NNW16.9 kmh NNW 17.0 mph27.4 kmh 29.88 in1011.9 mb 0.00 in0.0 mm 0.00 in0.0 mm 0.00 in0.0 mm
06:03 PM 52.9°F11.6°C 38.5°F3.6°C 58% 14.1 mph N22.7 kmh N 14.8 mph23.8 kmh 29.88 in1011.9 mb 0.00 in0.0 mm 0.00 in0.0 mm 0.00 in0.0 mm
05:58 PM 53.1°F11.7°C 38.7°F3.7°C 58% 5.1 mph 8.2 kmh 12.8 mph20.6 kmh 29.88 in1011.9 mb 0.00 in0.0 mm 0.00 in0.0 mm 0.00 in0.0 mm
05:53 PM 53.2°F11.8°C 37.4°F3.0°C 55% 10.1 mph N16.3 kmh N 17.0 mph27.4 kmh 29.87 in1011.5 mb 0.00 in0.0 mm 0.00 in0.0 mm 0.00 in0.0 mm
05:48 PM 54.0°F12.2°C 37.2°F2.9°C 53% 16.8 mph NW27.0 kmh NW 27.5 mph44.3 kmh 29.87 in1011.5 mb 0.00 in0.0 mm 0.00 in0.0 mm 0.00 in0.0 mm
05:43 PM 54.9°F12.7°C 36.5°F2.5°C 50% 18.1 mph 29.1 kmh 25.5 mph41.0 kmh 29.87 in1011.5 mb 0.00 in0.0 mm 0.00 in0.0 mm 0.00 in0.0 mm
05:38 PM 55.2°F12.9°C 33.6°F0.9°C 44% 6.5 mph SW10.5 kmh SW 29.8 mph48.0 kmh 29.87 in1011.5 mb 0.00 in0.0 mm 0.00 in0.0 mm 0.00 in0.0 mm
05:33 PM 56.1°F13.4°C 34.0°F1.1°C 43% 17.9 mph 28.8 kmh 24.4 mph39.3 kmh 29.86 in1011.2 mb 0.00 in0.0 mm 0.00 in0.0 mm 0.00 in0.0 mm
05:28 PM 56.1°F13.4°C 34.5°F1.4°C 44% 7.8 mph NNW12.6 kmh NNW 17.0 mph27.4 kmh 29.86 in1011.2 mb 0.00 in0.0 mm 0.00 in0.0 mm 0.00 in0.0 mm
05:23 PM 56.3°F13.5°C 32.9°F0.5°C 41% 16.6 mph N26.7 kmh N 23.3 mph37.5 kmh 29.86 in1011.2 mb 0.00 in0.0 mm 0.00 in0.0 mm 0.00 in0.0 mm
05:18 PM 56.1°F13.4°C 32.7°F0.4°C 41% 9.6 mph N15.4 kmh N 21.3 mph34.3 kmh 29.85 in1010.8 mb 0.00 in0.0 mm 0.00 in0.0 mm 0.00 in0.0 mm
05:13 PM 56.3°F13.5°C 32.9°F0.5°C 41% 10.1 mph ENE16.3 kmh ENE 20.1 mph32.3 kmh 29.85 in1010.8 mb 0.00 in0.0 mm 0.00 in0.0 mm 0.00 in0.0 mm
05:08 PM 56.5°F13.6°C 33.6°F0.9°C 42% 17.0 mph NNE27.4 kmh NNE 29.8 mph48.0 kmh 29.85 in1010.8 mb 0.00 in0.0 mm 0.00 in0.0 mm 0.00 in0.0 mm
05:03 PM 56.7°F13.7°C 35.6°F2.0°C 45% 9.2 mph ENE14.8 kmh ENE 21.3 mph34.3 kmh 29.85 in1010.8 mb 0.00 in0.0 mm 0.00 in0.0 mm 0.00 in0.0 mm
04:58 PM 56.8°F13.8°C 34.5°F1.4°C 43% 9.2 mph E14.8 kmh E 22.4 mph36.0 kmh 29.85 in1010.8 mb 0.00 in0.0 mm 0.00 in0.0 mm 0.00 in0.0 mm
04:53 PM 56.8°F13.8°C 32.2°F0.1°C 39% 11.4 mph NE18.3 kmh NE 17.0 mph27.4 kmh 29.85 in1010.8 mb 0.00 in0.0 mm 0.00 in0.0 mm 0.00 in0.0 mm
04:48 PM 56.8°F13.8°C 32.2°F0.1°C 39% 11.2 mph N18.0 kmh N 24.4 mph39.3 kmh 29.85 in1010.8 mb 0.00 in0.0 mm 0.00 in0.0 mm 0.00 in0.0 mm
04:43 PM 57.0°F13.9°C 31.6°F-0.2°C 38% 13.0 mph NE20.9 kmh NE 29.8 mph48.0 kmh 29.85 in1010.8 mb 0.00 in0.0 mm 0.00 in0.0 mm 0.00 in0.0 mm
04:38 PM 57.4°F14.1°C 32.0°F0.0°C 38% 18.8 mph NE30.3 kmh NE 29.8 mph48.0 kmh 29.84 in1010.5 mb 0.00 in0.0 mm 0.00 in0.0 mm 0.00 in0.0 mm
04:33 PM 57.4°F14.1°C 32.0°F0.0°C 38% 19.2 mph NE30.9 kmh NE 35.1 mph56.5 kmh 29.84 in1010.5 mb 0.00 in0.0 mm 0.00 in0.0 mm 0.00 in0.0 mm
04:28 PM 57.6°F14.2°C 32.2°F0.1°C 38% 16.6 mph NE26.7 kmh NE 27.5 mph44.3 kmh 29.84 in1010.5 mb 0.00 in0.0 mm 0.00 in0.0 mm 0.00 in0.0 mm
04:23 PM 57.6°F14.2°C 32.2°F0.1°C 38% 19.9 mph NE32.0 kmh NE 29.8 mph48.0 kmh 29.84 in1010.5 mb 0.00 in0.0 mm 0.00 in0.0 mm 0.00 in0.0 mm
04:18 PM 57.9°F14.4°C 32.5°F0.3°C 38% 17.9 mph NE28.8 kmh NE 29.8 mph48.0 kmh 29.84 in1010.5 mb 0.00 in0.0 mm 0.00 in0.0 mm 0.00 in0.0 mm
04:13 PM 58.3°F14.6°C 32.2°F0.1°C 37% 16.1 mph 25.9 kmh 26.6 mph42.8 kmh 29.84 in1010.5 mb 0.00 in0.0 mm 0.00 in0.0 mm 0.00 in0.0 mm
04:08 PM 58.6°F14.8°C 32.4°F0.2°C 37% 19.9 mph NNW32.0 kmh NNW 31.8 mph51.2 kmh 29.85 in1010.8 mb 0.00 in0.0 mm 0.00 in0.0 mm 0.00 in0.0 mm
04:03 PM 59.2°F15.1°C 32.9°F0.5°C 37% 20.6 mph 33.2 kmh 34.0 mph54.7 kmh 29.84 in1010.5 mb 0.00 in0.0 mm 0.00 in0.0 mm 0.00 in0.0 mm
03:58 PM 59.4°F15.2°C 33.1°F0.6°C 37% 18.6 mph NNE29.9 kmh NNE 31.8 mph51.2 kmh 29.84 in1010.5 mb 0.00 in0.0 mm 0.00 in0.0 mm 0.00 in0.0 mm
03:53 PM 59.4°F15.2°C 33.1°F0.6°C 37% 19.9 mph NNE32.0 kmh NNE 28.6 mph46.0 kmh 29.84 in1010.5 mb 0.00 in0.0 mm 0.00 in0.0 mm 0.00 in0.0 mm
03:48 PM 59.4°F15.2°C 33.1°F0.6°C 37% 26.8 mph N43.1 kmh N 36.0 mph57.9 kmh 29.84 in1010.5 mb 0.00 in0.0 mm 0.00 in0.0 mm 0.00 in0.0 mm
03:43 PM 59.4°F15.2°C 33.8°F1.0°C 38% 17.7 mph 28.5 kmh 38.3 mph61.6 kmh 29.84 in1010.5 mb 0.00 in0.0 mm 0.00 in0.0 mm 0.00 in0.0 mm
03:38 PM 59.2°F15.1°C 34.2°F1.2°C 39% 22.1 mph N35.6 kmh N 49.9 mph80.3 kmh 29.83 in1010.2 mb 0.00 in0.0 mm 0.00 in0.0 mm 0.00 in0.0 mm
03:33 PM 59.2°F15.1°C 33.6°F0.9°C 38% 27.5 mph NNE44.3 kmh NNE 40.3 mph64.9 kmh 29.83 in1010.2 mb 0.00 in0.0 mm 0.00 in0.0 mm 0.00 in0.0 mm
03:28 PM 59.2°F15.1°C 34.2°F1.2°C 39% 26.6 mph 42.8 kmh 42.5 mph68.4 kmh 29.83 in1010.2 mb 0.00 in0.0 mm 0.00 in0.0 mm 0.00 in0.0 mm
03:23 PM 58.6°F14.8°C 34.3°F1.3°C 40% 22.4 mph NE36.0 kmh NE 46.8 mph75.3 kmh 29.83 in1010.2 mb 0.00 in0.0 mm 0.00 in0.0 mm 0.00 in0.0 mm
03:18 PM 57.7°F14.3°C 34.2°F1.2°C 41% 25.1 mph NNE40.4 kmh NNE 43.6 mph70.2 kmh 29.83 in1010.2 mb 0.00 in0.0 mm 0.00 in0.0 mm 0.00 in0.0 mm
03:13 PM 57.4°F14.1°C 33.8°F1.0°C 41% 28.4 mph 45.7 kmh 41.4 mph66.6 kmh 29.84 in1010.5 mb 0.00 in0.0 mm 0.00 in0.0 mm 0.00 in0.0 mm
03:08 PM 57.4°F14.1°C 34.5°F1.4°C 42% 19.5 mph NNE31.4 kmh NNE 42.5 mph68.4 kmh 29.84 in1010.5 mb 0.00 in0.0 mm 0.00 in0.0 mm 0.00 in0.0 mm
03:03 PM 57.4°F14.1°C 33.8°F1.0°C 41% 22.1 mph N35.6 kmh N 46.8 mph75.3 kmh 29.84 in1010.5 mb 0.00 in0.0 mm 0.00 in0.0 mm 0.00 in0.0 mm
02:58 PM 57.6°F14.2°C 34.7°F1.5°C 42% 26.2 mph N42.2 kmh N 44.5 mph71.6 kmh 29.84 in1010.5 mb 0.00 in0.0 mm 0.00 in0.0 mm 0.00 in0.0 mm
02:53 PM 56.7°F13.7°C 35.1°F1.7°C 44% 28.6 mph N46.0 kmh N 51.0 mph82.1 kmh 29.84 in1010.5 mb 0.00 in0.0 mm 0.00 in0.0 mm 0.00 in0.0 mm
02:48 PM 56.3°F13.5°C 34.7°F1.5°C 44% 28.0 mph NNE45.1 kmh NNE 51.0 mph82.1 kmh 29.85 in1010.8 mb 0.00 in0.0 mm 0.00 in0.0 mm 0.00 in0.0 mm
02:43 PM 56.5°F13.6°C 34.3°F1.3°C 43% 22.8 mph 36.7 kmh 39.4 mph63.4 kmh 29.85 in1010.8 mb 0.00 in0.0 mm 0.00 in0.0 mm 0.00 in0.0 mm
02:38 PM 56.5°F13.6°C 34.9°F1.6°C 44% 24.4 mph N39.3 kmh N 44.5 mph71.6 kmh 29.85 in1010.8 mb 0.00 in0.0 mm 0.00 in0.0 mm 0.00 in0.0 mm
02:33 PM 56.7°F13.7°C 35.6°F2.0°C 45% 27.5 mph N44.3 kmh N 37.1 mph59.7 kmh 29.86 in1011.2 mb 0.00 in0.0 mm 0.00 in0.0 mm 0.00 in0.0 mm
02:28 PM 56.5°F13.6°C 34.9°F1.6°C 44% 26.6 mph 42.8 kmh 46.8 mph75.3 kmh 29.86 in1011.2 mb 0.00 in0.0 mm 0.00 in0.0 mm 0.00 in0.0 mm
02:23 PM 56.8°F13.8°C 35.2°F1.8°C 44% 30.0 mph N48.3 kmh N 42.5 mph68.4 kmh 29.85 in1010.8 mb 0.00 in0.0 mm 0.00 in0.0 mm 0.00 in0.0 mm
02:18 PM 57.0°F13.9°C 36.0°F2.2°C 45% 26.4 mph NE42.5 kmh NE 48.8 mph78.5 kmh 29.85 in1010.8 mb 0.00 in0.0 mm 0.00 in0.0 mm 0.00 in0.0 mm
02:13 PM 56.7°F13.7°C 36.1°F2.3°C 46% 28.4 mph NE45.7 kmh NE 48.8 mph78.5 kmh 29.85 in1010.8 mb 0.00 in0.0 mm 0.00 in0.0 mm 0.00 in0.0 mm
02:08 PM 55.9°F13.3°C 36.0°F2.2°C 47% 25.5 mph 41.0 kmh 38.3 mph61.6 kmh 29.85 in1010.8 mb 0.00 in0.0 mm 0.00 in0.0 mm 0.00 in0.0 mm
02:03 PM 55.9°F13.3°C 35.4°F1.9°C 46% 28.4 mph N45.7 kmh N 42.5 mph68.4 kmh 29.85 in1010.8 mb 0.00 in0.0 mm 0.00 in0.0 mm 0.00 in0.0 mm
01:58 PM 56.7°F13.7°C 35.1°F1.7°C 44% 23.7 mph NE38.1 kmh NE 40.3 mph64.9 kmh 29.85 in1010.8 mb 0.00 in0.0 mm 0.00 in0.0 mm 0.00 in0.0 mm
01:53 PM 57.4°F14.1°C 35.6°F2.0°C 44% 25.5 mph N41.0 kmh N 41.4 mph66.6 kmh 29.85 in1010.8 mb 0.00 in0.0 mm 0.00 in0.0 mm 0.00 in0.0 mm
01:48 PM 58.5°F14.7°C 35.4°F1.9°C 42% 25.5 mph N41.0 kmh N 44.5 mph71.6 kmh 29.85 in1010.8 mb 0.00 in0.0 mm 0.00 in0.0 mm 0.00 in0.0 mm
01:43 PM 58.8°F14.9°C 35.2°F1.8°C 41% 26.4 mph NNE42.5 kmh NNE 40.3 mph64.9 kmh 29.85 in1010.8 mb 0.00 in0.0 mm 0.00 in0.0 mm 0.00 in0.0 mm
01:38 PM 58.3°F14.6°C 36.0°F2.2°C 43% 29.5 mph 47.5 kmh 44.5 mph71.6 kmh 29.86 in1011.2 mb 0.00 in0.0 mm 0.00 in0.0 mm 0.00 in0.0 mm
01:33 PM 58.1°F14.5°C 35.1°F1.7°C 42% 26.2 mph N42.2 kmh N 49.9 mph80.3 kmh 29.85 in1010.8 mb 0.00 in0.0 mm 0.00 in0.0 mm 0.00 in0.0 mm
01:28 PM 57.9°F14.4°C 35.6°F2.0°C 43% 29.1 mph N46.8 kmh N 46.8 mph75.3 kmh 29.85 in1010.8 mb 0.00 in0.0 mm 0.00 in0.0 mm 0.00 in0.0 mm
01:23 PM 57.4°F14.1°C 35.6°F2.0°C 44% 25.9 mph NNW41.7 kmh NNW 41.4 mph66.6 kmh 29.85 in1010.8 mb 0.00 in0.0 mm 0.00 in0.0 mm 0.00 in0.0 mm
01:18 PM 56.5°F13.6°C 35.4°F1.9°C 45% 29.1 mph NNW46.8 kmh NNW 51.0 mph82.1 kmh 29.86 in1011.2 mb 0.00 in0.0 mm 0.00 in0.0 mm 0.00 in0.0 mm
01:13 PM 56.8°F13.8°C 35.8°F2.1°C 45% 27.7 mph N44.6 kmh N 43.6 mph70.2 kmh 29.85 in1010.8 mb 0.00 in0.0 mm 0.00 in0.0 mm 0.00 in0.0 mm
01:08 PM 56.5°F13.6°C 36.0°F2.2°C 46% 23.3 mph 37.5 kmh 47.9 mph77.1 kmh 29.86 in1011.2 mb 0.00 in0.0 mm 0.00 in0.0 mm 0.00 in0.0 mm
01:03 PM 55.6°F13.1°C 36.1°F2.3°C 48% 21.5 mph WNW34.6 kmh WNW 32.9 mph52.9 kmh 29.85 in1010.8 mb 0.00 in0.0 mm 0.00 in0.0 mm 0.00 in0.0 mm
12:58 PM 54.9°F12.7°C 35.6°F2.0°C 48% 20.6 mph N33.2 kmh N 42.5 mph68.4 kmh 29.86 in1011.2 mb 0.00 in0.0 mm 0.00 in0.0 mm 0.00 in0.0 mm
12:53 PM 54.9°F12.7°C 35.6°F2.0°C 48% 24.6 mph NW39.6 kmh NW 40.3 mph64.9 kmh 29.86 in1011.2 mb 0.00 in0.0 mm 0.00 in0.0 mm 0.00 in0.0 mm
12:48 PM 55.0°F12.8°C 35.2°F1.8°C 47% 25.5 mph NW41.0 kmh NW 42.5 mph68.4 kmh 29.86 in1011.2 mb 0.00 in0.0 mm 0.00 in0.0 mm 0.00 in0.0 mm
12:43 PM 55.6°F13.1°C 35.6°F2.0°C 47% 29.8 mph 48.0 kmh 48.8 mph78.5 kmh 29.86 in1011.2 mb 0.00 in0.0 mm 0.00 in0.0 mm 0.00 in0.0 mm
12:38 PM 55.8°F13.2°C 35.8°F2.1°C 47% 26.2 mph N42.2 kmh N 55.3 mph89.0 kmh 29.86 in1011.2 mb 0.00 in0.0 mm 0.00 in0.0 mm 0.00 in0.0 mm
12:33 PM 55.8°F13.2°C 35.8°F2.1°C 47% 32.0 mph NNW51.5 kmh NNW 49.9 mph80.3 kmh 29.86 in1011.2 mb 0.00 in0.0 mm 0.00 in0.0 mm 0.00 in0.0 mm
12:28 PM 55.0°F12.8°C 36.1°F2.3°C 49% 25.9 mph NNW41.7 kmh NNW 55.3 mph89.0 kmh 29.86 in1011.2 mb 0.00 in0.0 mm 0.00 in0.0 mm 0.00 in0.0 mm
12:23 PM 54.7°F12.6°C 35.4°F1.9°C 48% 26.6 mph NNW42.8 kmh NNW 46.8 mph75.3 kmh 29.86 in1011.2 mb 0.00 in0.0 mm 0.00 in0.0 mm 0.00 in0.0 mm
12:18 PM 54.5°F12.5°C 35.2°F1.8°C 48% 28.2 mph NNW45.4 kmh NNW 46.8 mph75.3 kmh 29.86 in1011.2 mb 0.00 in0.0 mm 0.00 in0.0 mm 0.00 in0.0 mm
12:13 PM 54.3°F12.4°C 35.1°F1.7°C 48% 25.7 mph NNW41.4 kmh NNW 39.4 mph63.4 kmh 29.86 in1011.2 mb 0.00 in0.0 mm 0.00 in0.0 mm 0.00 in0.0 mm
12:08 PM 54.1°F12.3°C 35.4°F1.9°C 49% 22.6 mph NW36.4 kmh NW 40.3 mph64.9 kmh 29.86 in1011.2 mb 0.00 in0.0 mm 0.00 in0.0 mm 0.00 in0.0 mm
12:03 PM 54.0°F12.2°C 35.8°F2.1°C 50% 29.3 mph NW47.2 kmh NW 40.3 mph64.9 kmh 29.86 in1011.2 mb 0.00 in0.0 mm 0.00 in0.0 mm 0.00 in0.0 mm
11:58 AM 53.8°F12.1°C 35.6°F2.0°C 50% 27.7 mph WNW44.6 kmh WNW 39.4 mph63.4 kmh 29.86 in1011.2 mb 0.00 in0.0 mm 0.00 in0.0 mm 0.00 in0.0 mm
11:53 AM 53.6°F12.0°C 36.0°F2.2°C 51% 21.9 mph NW35.2 kmh NW 34.0 mph54.7 kmh 29.86 in1011.2 mb 0.00 in0.0 mm 0.00 in0.0 mm 0.00 in0.0 mm
11:48 AM 53.2°F11.8°C 35.6°F2.0°C 51% 19.7 mph NW31.7 kmh NW 31.8 mph51.2 kmh 29.86 in1011.2 mb 0.00 in0.0 mm 0.00 in0.0 mm 0.00 in0.0 mm
11:43 AM 53.1°F11.7°C 35.4°F1.9°C 51% 18.3 mph NNW29.5 kmh NNW 39.4 mph63.4 kmh 29.86 in1011.2 mb 0.00 in0.0 mm 0.00 in0.0 mm 0.00 in0.0 mm
11:38 AM 52.7°F11.5°C 35.6°F2.0°C 52% 20.4 mph NW32.8 kmh NW 40.3 mph64.9 kmh 29.86 in1011.2 mb 0.00 in0.0 mm 0.00 in0.0 mm 0.00 in0.0 mm
11:33 AM 52.5°F11.4°C 35.4°F1.9°C 52% 23.7 mph NW38.1 kmh NW 35.1 mph56.5 kmh 29.86 in1011.2 mb 0.00 in0.0 mm 0.00 in0.0 mm 0.00 in0.0 mm
11:28 AM 52.5°F11.4°C 34.9°F1.6°C 51% 17.7 mph NW28.5 kmh NW 36.0 mph57.9 kmh 29.86 in1011.2 mb 0.00 in0.0 mm 0.00 in0.0 mm 0.00 in0.0 mm
11:23 AM 52.5°F11.4°C 34.3°F1.3°C 50% 24.6 mph NNW39.6 kmh NNW 41.4 mph66.6 kmh 29.86 in1011.2 mb 0.00 in0.0 mm 0.00 in0.0 mm 0.00 in0.0 mm
11:18 AM 52.5°F11.4°C 34.3°F1.3°C 50% 24.2 mph NW38.9 kmh NW 40.3 mph64.9 kmh 29.86 in1011.2 mb 0.00 in0.0 mm 0.00 in0.0 mm 0.00 in0.0 mm
11:13 AM 52.3°F11.3°C 34.7°F1.5°C 51% 26.2 mph N42.2 kmh N 47.9 mph77.1 kmh 29.86 in1011.2 mb 0.00 in0.0 mm 0.00 in0.0 mm 0.00 in0.0 mm
11:08 AM 52.3°F11.3°C 34.7°F1.5°C 51% 24.4 mph N39.3 kmh N 46.8 mph75.3 kmh 29.86 in1011.2 mb 0.00 in0.0 mm 0.00 in0.0 mm 0.00 in0.0 mm
11:03 AM 52.0°F11.1°C 35.4°F1.9°C 53% 25.9 mph NW41.7 kmh NW 44.5 mph71.6 kmh 29.85 in1010.8 mb 0.00 in0.0 mm 0.00 in0.0 mm 0.00 in0.0 mm
10:58 AM 51.4°F10.8°C 34.9°F1.6°C 53% 23.9 mph NW38.5 kmh NW 40.3 mph64.9 kmh 29.85 in1010.8 mb 0.00 in0.0 mm 0.00 in0.0 mm 0.00 in0.0 mm
10:53 AM 51.4°F10.8°C 34.9°F1.6°C 53% 22.6 mph NW36.4 kmh NW 43.6 mph70.2 kmh 29.85 in1010.8 mb 0.00 in0.0 mm 0.00 in0.0 mm 0.00 in0.0 mm
10:48 AM 51.3°F10.7°C 34.7°F1.5°C 53% 27.7 mph NW44.6 kmh NW 42.5 mph68.4 kmh 29.84 in1010.5 mb 0.00 in0.0 mm 0.00 in0.0 mm 0.00 in0.0 mm
10:43 AM 51.3°F10.7°C 34.7°F1.5°C 53% 28.2 mph NW45.4 kmh NW 44.5 mph71.6 kmh 29.84 in1010.5 mb 0.00 in0.0 mm 0.00 in0.0 mm 0.00 in0.0 mm
10:38 AM 51.3°F10.7°C 34.2°F1.2°C 52% 32.7 mph NW52.6 kmh NW 48.8 mph78.5 kmh 29.84 in1010.5 mb 0.00 in0.0 mm 0.00 in0.0 mm 0.00 in0.0 mm
10:33 AM 51.1°F10.6°C 34.5°F1.4°C 53% 19.0 mph NW30.6 kmh NW 34.0 mph54.7 kmh 29.84 in1010.5 mb 0.00 in0.0 mm 0.00 in0.0 mm 0.00 in0.0 mm
10:28 AM 51.1°F10.6°C 34.5°F1.4°C 53% 31.8 mph NW51.2 kmh NW 51.0 mph82.1 kmh 29.83 in1010.2 mb 0.00 in0.0 mm 0.00 in0.0 mm 0.00 in0.0 mm
10:23 AM 51.3°F10.7°C 34.2°F1.2°C 52% 27.1 mph WNW43.6 kmh WNW 43.6 mph70.2 kmh 29.83 in1010.2 mb 0.00 in0.0 mm 0.00 in0.0 mm 0.00 in0.0 mm
10:18 AM 51.4°F10.8°C 34.9°F1.6°C 53% 24.4 mph NW39.3 kmh NW 39.4 mph63.4 kmh 29.83 in1010.2 mb 0.00 in0.0 mm 0.00 in0.0 mm 0.00 in0.0 mm
10:13 AM 51.3°F10.7°C 35.6°F2.0°C 55% 15.7 mph NNW25.3 kmh NNW 39.4 mph63.4 kmh 29.83 in1010.2 mb 0.00 in0.0 mm 0.00 in0.0 mm 0.00 in0.0 mm
10:08 AM 51.1°F10.6°C 35.4°F1.9°C 55% 26.2 mph NW42.2 kmh NW 43.6 mph70.2 kmh 29.83 in1010.2 mb 0.00 in0.0 mm 0.00 in0.0 mm 0.00 in0.0 mm
10:03 AM 50.5°F10.3°C 36.3°F2.4°C 58% 22.6 mph NW36.4 kmh NW 40.3 mph64.9 kmh 29.83 in1010.2 mb 0.00 in0.0 mm 0.00 in0.0 mm 0.00 in0.0 mm
09:58 AM 50.2°F10.1°C 36.9°F2.7°C 60% 17.7 mph NNW28.5 kmh NNW 34.0 mph54.7 kmh 29.83 in1010.2 mb 0.00 in0.0 mm 0.00 in0.0 mm 0.00 in0.0 mm
09:53 AM 49.8°F9.9°C 37.4°F3.0°C 62% 15.9 mph NW25.6 kmh NW 25.5 mph41.0 kmh 29.83 in1010.2 mb 0.00 in0.0 mm 0.00 in0.0 mm 0.00 in0.0 mm
09:48 AM 49.5°F9.7°C 37.4°F3.0°C 63% 20.4 mph WNW32.8 kmh WNW 40.3 mph64.9 kmh 29.83 in1010.2 mb 0.00 in0.0 mm 0.00 in0.0 mm 0.00 in0.0 mm
09:43 AM 48.6°F9.2°C 38.1°F3.4°C 67% 15.4 mph WNW24.8 kmh WNW 30.9 mph49.7 kmh 29.83 in1010.2 mb 0.00 in0.0 mm 0.00 in0.0 mm 0.00 in0.0 mm
09:38 AM 47.8°F8.8°C 38.8°F3.8°C 71% 6.5 mph NNW10.5 kmh NNW 12.8 mph20.6 kmh 29.82 in1009.8 mb 0.00 in0.0 mm 0.00 in0.0 mm 0.00 in0.0 mm
09:33 AM 47.1°F8.4°C 38.8°F3.8°C 73% 10.3 mph N16.6 kmh N 20.1 mph32.3 kmh 29.82 in1009.8 mb 0.00 in0.0 mm 0.00 in0.0 mm 0.00 in0.0 mm
09:28 AM 46.6°F8.1°C 39.4°F4.1°C 76% 0.4 mph SSW0.6 kmh SSW 10.5 mph16.9 kmh 29.82 in1009.8 mb 0.00 in0.0 mm 0.00 in0.0 mm 0.00 in0.0 mm
09:23 AM 46.0°F7.8°C 39.6°F4.2°C 78% 4.9 mph SW7.9 kmh SW 8.5 mph13.7 kmh 29.82 in1009.8 mb 0.00 in0.0 mm 0.00 in0.0 mm 0.00 in0.0 mm
09:18 AM 45.7°F7.6°C 39.2°F4.0°C 78% 4.3 mph SW6.9 kmh SW 8.5 mph13.7 kmh 29.82 in1009.8 mb 0.00 in0.0 mm 0.00 in0.0 mm 0.00 in0.0 mm
09:13 AM 45.5°F7.5°C 39.0°F3.9°C 78% 5.4 mph SW8.7 kmh SW 8.5 mph13.7 kmh 29.81 in1009.5 mb 0.00 in0.0 mm 0.00 in0.0 mm 0.00 in0.0 mm
09:08 AM 45.3°F7.4°C 38.5°F3.6°C 77% 3.4 mph SSW5.5 kmh SSW 10.5 mph16.9 kmh 29.81 in1009.5 mb 0.00 in0.0 mm 0.00 in0.0 mm 0.00 in0.0 mm
09:03 AM 45.3°F7.4°C 38.5°F3.6°C 77% 7.6 mph SW12.2 kmh SW 14.8 mph23.8 kmh 29.81 in1009.5 mb 0.00 in0.0 mm 0.00 in0.0 mm 0.00 in0.0 mm
08:58 AM 45.1°F7.3°C 37.9°F3.3°C 76% 4.0 mph SW6.4 kmh SW 8.5 mph13.7 kmh 29.81 in1009.5 mb 0.00 in0.0 mm 0.00 in0.0 mm 0.00 in0.0 mm
08:53 AM 45.0°F7.2°C 38.1°F3.4°C 77% 3.8 mph SW6.1 kmh SW 8.5 mph13.7 kmh 29.80 in1009.1 mb 0.00 in0.0 mm 0.00 in0.0 mm 0.00 in0.0 mm
08:48 AM 44.8°F7.1°C 37.9°F3.3°C 77% 5.4 mph SW8.7 kmh SW 8.5 mph13.7 kmh 29.80 in1009.1 mb 0.00 in0.0 mm 0.00 in0.0 mm 0.00 in0.0 mm
08:43 AM 44.6°F7.0°C 37.6°F3.1°C 76% 5.4 mph SW8.7 kmh SW 9.6 mph15.4 kmh 29.80 in1009.1 mb 0.00 in0.0 mm 0.00 in0.0 mm 0.00 in0.0 mm
08:38 AM 44.4°F6.9°C 37.4°F3.0°C 76% 4.0 mph SW6.4 kmh SW 10.5 mph16.9 kmh 29.80 in1009.1 mb 0.00 in0.0 mm 0.00 in0.0 mm 0.00 in0.0 mm
08:33 AM 44.2°F6.8°C 37.2°F2.9°C 76% 4.0 mph SW6.4 kmh SW 8.5 mph13.7 kmh 29.80 in1009.1 mb 0.00 in0.0 mm 0.00 in0.0 mm 0.00 in0.0 mm
08:28 AM 44.2°F6.8°C 36.9°F2.7°C 75% 3.1 mph WSW5.0 kmh WSW 8.5 mph13.7 kmh 29.80 in1009.1 mb 0.00 in0.0 mm 0.00 in0.0 mm 0.00 in0.0 mm
08:23 AM 44.1°F6.7°C 36.7°F2.6°C 75% 3.1 mph SW5.0 kmh SW 6.3 mph10.1 kmh 29.79 in1008.8 mb 0.00 in0.0 mm 0.00 in0.0 mm 0.00 in0.0 mm
08:18 AM 44.1°F6.7°C 36.7°F2.6°C 75% 2.9 mph SW4.7 kmh SW 8.5 mph13.7 kmh 29.79 in1008.8 mb 0.00 in0.0 mm 0.00 in0.0 mm 0.00 in0.0 mm
08:13 AM 44.1°F6.7°C 36.3°F2.4°C 74% 0.2 mph SW0.3 kmh SW 8.5 mph13.7 kmh 29.79 in1008.8 mb 0.00 in0.0 mm 0.00 in0.0 mm 0.00 in0.0 mm
08:08 AM 43.9°F6.6°C 36.1°F2.3°C 74% 3.8 mph SW6.1 kmh SW 8.5 mph13.7 kmh 29.79 in1008.8 mb 0.00 in0.0 mm 0.00 in0.0 mm 0.00 in0.0 mm
08:03 AM 43.9°F6.6°C 35.8°F2.1°C 73% 6.3 mph SW10.1 kmh SW 10.5 mph16.9 kmh 29.79 in1008.8 mb 0.00 in0.0 mm 0.00 in0.0 mm 0.00 in0.0 mm
07:58 AM 43.9°F6.6°C 35.8°F2.1°C 73% 7.8 mph SW12.6 kmh SW 14.8 mph23.8 kmh 29.78 in1008.5 mb 0.00 in0.0 mm 0.00 in0.0 mm 0.00 in0.0 mm
07:53 AM 44.1°F6.7°C 36.0°F2.2°C 73% 3.4 mph SW5.5 kmh SW 9.6 mph15.4 kmh 29.78 in1008.5 mb 0.00 in0.0 mm 0.00 in0.0 mm 0.00 in0.0 mm
07:48 AM 44.1°F6.7°C 35.2°F1.8°C 71% 4.5 mph SW7.2 kmh SW 10.5 mph16.9 kmh 29.78 in1008.5 mb 0.00 in0.0 mm 0.00 in0.0 mm 0.00 in0.0 mm
07:43 AM 44.1°F6.7°C 35.2°F1.8°C 71% 2.9 mph WSW4.7 kmh WSW 14.8 mph23.8 kmh 29.77 in1008.1 mb 0.00 in0.0 mm 0.00 in0.0 mm 0.00 in0.0 mm
07:38 AM 44.1°F6.7°C 34.9°F1.6°C 70% 4.3 mph SW6.9 kmh SW 6.3 mph10.1 kmh 29.77 in1008.1 mb 0.00 in0.0 mm 0.00 in0.0 mm 0.00 in0.0 mm
07:33 AM 44.1°F6.7°C 34.2°F1.2°C 68% 4.0 mph SW6.4 kmh SW 10.5 mph16.9 kmh 29.77 in1008.1 mb 0.00 in0.0 mm 0.00 in0.0 mm 0.00 in0.0 mm
07:28 AM 44.1°F6.7°C 34.2°F1.2°C 68% 1.1 mph SW1.8 kmh SW -- 29.77 in1008.1 mb 0.00 in0.0 mm 0.00 in0.0 mm 0.00 in0.0 mm
07:23 AM 44.1°F6.7°C 34.2°F1.2°C 68% 0.2 mph SW0.3 kmh SW 2.0 mph3.2 kmh 29.76 in1007.8 mb 0.00 in0.0 mm 0.00 in0.0 mm 0.00 in0.0 mm
07:18 AM 44.1°F6.7°C 33.8°F1.0°C 67% 0.2 mph SW0.3 kmh SW 6.3 mph10.1 kmh 29.76 in1007.8 mb 0.00 in0.0 mm 0.00 in0.0 mm 0.00 in0.0 mm
07:13 AM 44.1°F6.7°C 33.4°F0.8°C 66% 0.7 mph SW1.1 kmh SW 8.5 mph13.7 kmh 29.75 in1007.5 mb 0.00 in0.0 mm 0.00 in0.0 mm 0.00 in0.0 mm
07:08 AM 44.2°F6.8°C 32.9°F0.5°C 64% 3.6 mph WSW5.8 kmh WSW 6.3 mph10.1 kmh 29.75 in1007.5 mb 0.00 in0.0 mm 0.00 in0.0 mm 0.00 in0.0 mm
07:03 AM 44.4°F6.9°C 32.2°F0.1°C 62% 6.0 mph WSW9.7 kmh WSW 8.5 mph13.7 kmh 29.75 in1007.5 mb 0.00 in0.0 mm 0.00 in0.0 mm 0.00 in0.0 mm
06:58 AM 44.4°F6.9°C 30.9°F-0.6°C 59% 0.9 mph NW1.4 kmh NW 2.0 mph3.2 kmh 29.75 in1007.5 mb 0.00 in0.0 mm 0.00 in0.0 mm 0.00 in0.0 mm
06:53 AM 44.4°F6.9°C 30.2°F-1.0°C 57% 2.7 mph NW4.3 kmh NW 9.6 mph15.4 kmh 29.74 in1007.1 mb 0.00 in0.0 mm 0.00 in0.0 mm 0.00 in0.0 mm
06:48 AM 44.2°F6.8°C 30.7°F-0.7°C 59% 2.9 mph NW4.7 kmh NW 8.5 mph13.7 kmh 29.74 in1007.1 mb 0.00 in0.0 mm 0.00 in0.0 mm 0.00 in0.0 mm
06:43 AM 44.1°F6.7°C 30.7°F-0.7°C 59% 4.7 mph NW7.6 kmh NW 10.5 mph16.9 kmh 29.74 in1007.1 mb 0.00 in0.0 mm 0.00 in0.0 mm 0.00 in0.0 mm
06:38 AM 44.1°F6.7°C 31.5°F-0.3°C 61% 2.0 mph W3.2 kmh W 8.5 mph13.7 kmh 29.73 in1006.8 mb 0.00 in0.0 mm 0.00 in0.0 mm 0.00 in0.0 mm
06:33 AM 44.1°F6.7°C 31.5°F-0.3°C 61% 3.4 mph WSW5.5 kmh WSW 9.6 mph15.4 kmh 29.73 in1006.8 mb 0.00 in0.0 mm 0.00 in0.0 mm 0.00 in0.0 mm
06:28 AM 44.1°F6.7°C 31.8°F-0.1°C 62% Calm Calm 1.1 mph1.8 kmh 29.73 in1006.8 mb 0.00 in0.0 mm 0.00 in0.0 mm 0.00 in0.0 mm
06:23 AM 44.1°F6.7°C 31.1°F-0.5°C 60% 0.2 mph NNE0.3 kmh NNE 6.3 mph10.1 kmh 29.73 in1006.8 mb 0.00 in0.0 mm 0.00 in0.0 mm 0.00 in0.0 mm
06:18 AM 44.1°F6.7°C 31.1°F-0.5°C 60% 2.2 mph NNE3.5 kmh NNE 8.5 mph13.7 kmh 29.73 in1006.8 mb 0.00 in0.0 mm 0.00 in0.0 mm 0.00 in0.0 mm
06:13 AM 44.1°F6.7°C 31.5°F-0.3°C 61% Calm Calm 3.1 mph5.0 kmh 29.73 in1006.8 mb 0.00 in0.0 mm 0.00 in0.0 mm 0.00 in0.0 mm
06:08 AM 44.1°F6.7°C 31.5°F-0.3°C 61% 1.8 mph N2.9 kmh N 7.4 mph11.9 kmh 29.73 in1006.8 mb 0.00 in0.0 mm 0.00 in0.0 mm 0.00 in0.0 mm
06:03 AM 44.1°F6.7°C 30.7°F-0.7°C 59% 2.7 mph NNW4.3 kmh NNW 6.3 mph10.1 kmh 29.73 in1006.8 mb 0.00 in0.0 mm 0.00 in0.0 mm 0.00 in0.0 mm
05:58 AM 44.1°F6.7°C 30.7°F-0.7°C 59% Calm Calm 2.0 mph3.2 kmh 29.72 in1006.4 mb 0.00 in0.0 mm 0.00 in0.0 mm 0.00 in0.0 mm
05:53 AM 44.1°F6.7°C 30.7°F-0.7°C 59% Calm Calm 1.1 mph1.8 kmh 29.72 in1006.4 mb 0.00 in0.0 mm 0.00 in0.0 mm 0.00 in0.0 mm
05:48 AM 44.1°F6.7°C 31.1°F-0.5°C 60% Calm Calm 1.1 mph1.8 kmh 29.72 in1006.4 mb 0.00 in0.0 mm 0.00 in0.0 mm 0.00 in0.0 mm
05:43 AM 44.1°F6.7°C 31.1°F-0.5°C 60% Calm Calm 2.0 mph3.2 kmh 29.72 in1006.4 mb 0.00 in0.0 mm 0.00 in0.0 mm 0.00 in0.0 mm
05:38 AM 44.1°F6.7°C 30.7°F-0.7°C 59% Calm Calm -- 29.72 in1006.4 mb 0.00 in0.0 mm 0.00 in0.0 mm 0.00 in0.0 mm
05:33 AM 43.9°F6.6°C 30.6°F-0.8°C 59% 0.9 mph NNW1.4 kmh NNW 8.5 mph13.7 kmh 29.71 in1006.1 mb 0.00 in0.0 mm 0.00 in0.0 mm 0.00 in0.0 mm
05:28 AM 43.9°F6.6°C 30.6°F-0.8°C 59% 4.9 mph NNW7.9 kmh NNW 8.5 mph13.7 kmh 29.71 in1006.1 mb 0.00 in0.0 mm 0.00 in0.0 mm 0.00 in0.0 mm
05:23 AM 43.9°F6.6°C 30.6°F-0.8°C 59% 1.8 mph W2.9 kmh W 6.3 mph10.1 kmh 29.71 in1006.1 mb 0.00 in0.0 mm 0.00 in0.0 mm 0.00 in0.0 mm
05:18 AM 43.9°F6.6°C 30.6°F-0.8°C 59% Calm Calm -- 29.71 in1006.1 mb 0.00 in0.0 mm 0.00 in0.0 mm 0.00 in0.0 mm
05:13 AM 43.9°F6.6°C 30.6°F-0.8°C 59% Calm Calm 4.3 mph6.9 kmh 29.70 in1005.8 mb 0.00 in0.0 mm 0.00 in0.0 mm 0.00 in0.0 mm
05:08 AM 43.9°F6.6°C 30.9°F-0.6°C 60% Calm Calm 4.3 mph6.9 kmh 29.70 in1005.8 mb 0.00 in0.0 mm 0.00 in0.0 mm 0.00 in0.0 mm
05:03 AM 43.9°F6.6°C 30.6°F-0.8°C 59% Calm Calm 8.5 mph13.7 kmh 29.70 in1005.8 mb 0.00 in0.0 mm 0.00 in0.0 mm 0.00 in0.0 mm
04:58 AM 43.7°F6.5°C 30.4°F-0.9°C 59% 4.0 mph W6.4 kmh W 10.5 mph16.9 kmh 29.70 in1005.8 mb 0.00 in0.0 mm 0.00 in0.0 mm 0.00 in0.0 mm
04:53 AM 43.9°F6.6°C 30.6°F-0.8°C 59% 3.1 mph WSW5.0 kmh WSW 11.6 mph18.7 kmh 29.69 in1005.4 mb 0.00 in0.0 mm 0.00 in0.0 mm 0.00 in0.0 mm
04:48 AM 43.7°F6.5°C 30.4°F-0.9°C 59% 6.9 mph NW11.1 kmh NW 12.8 mph20.6 kmh 29.69 in1005.4 mb 0.00 in0.0 mm 0.00 in0.0 mm 0.00 in0.0 mm
04:43 AM 43.9°F6.6°C 30.6°F-0.8°C 59% 6.0 mph W9.7 kmh W 10.5 mph16.9 kmh 29.69 in1005.4 mb 0.00 in0.0 mm 0.00 in0.0 mm 0.00 in0.0 mm
04:38 AM 43.9°F6.6°C 30.6°F-0.8°C 59% 6.3 mph NW10.1 kmh NW 10.5 mph16.9 kmh 29.69 in1005.4 mb 0.00 in0.0 mm 0.00 in0.0 mm 0.00 in0.0 mm
04:33 AM 43.9°F6.6°C 30.0°F-1.1°C 58% 8.7 mph WNW14.0 kmh WNW 17.0 mph27.4 kmh 29.69 in1005.4 mb 0.00 in0.0 mm 0.00 in0.0 mm 0.00 in0.0 mm
04:28 AM 43.9°F6.6°C 30.0°F-1.1°C 58% 10.7 mph NW17.2 kmh NW 17.0 mph27.4 kmh 29.69 in1005.4 mb 0.00 in0.0 mm 0.00 in0.0 mm 0.00 in0.0 mm
04:23 AM 43.9°F6.6°C 30.0°F-1.1°C 58% 6.9 mph WNW11.1 kmh WNW 13.9 mph22.4 kmh 29.69 in1005.4 mb 0.00 in0.0 mm 0.00 in0.0 mm 0.00 in0.0 mm
04:18 AM 43.9°F6.6°C 30.0°F-1.1°C 58% 8.9 mph NW14.3 kmh NW 14.8 mph23.8 kmh 29.68 in1005.1 mb 0.00 in0.0 mm 0.00 in0.0 mm 0.00 in0.0 mm
04:13 AM 44.1°F6.7°C 30.2°F-1.0°C 58% 10.1 mph NW16.3 kmh NW 14.8 mph23.8 kmh 29.68 in1005.1 mb 0.00 in0.0 mm 0.00 in0.0 mm 0.00 in0.0 mm
04:08 AM 44.1°F6.7°C 29.8°F-1.2°C 57% 14.3 mph NW23.0 kmh NW 20.1 mph32.3 kmh 29.69 in1005.4 mb 0.00 in0.0 mm 0.00 in0.0 mm 0.00 in0.0 mm
04:03 AM 44.1°F6.7°C 29.8°F-1.2°C 57% 10.1 mph NW16.3 kmh NW 13.9 mph22.4 kmh 29.68 in1005.1 mb 0.00 in0.0 mm 0.00 in0.0 mm 0.00 in0.0 mm
03:58 AM 44.1°F6.7°C 29.8°F-1.2°C 57% 7.6 mph W12.2 kmh W 11.6 mph18.7 kmh 29.69 in1005.4 mb 0.00 in0.0 mm 0.00 in0.0 mm 0.00 in0.0 mm
03:53 AM 44.2°F6.8°C 30.0°F-1.1°C 57% 8.9 mph WNW14.3 kmh WNW 12.8 mph20.6 kmh 29.68 in1005.1 mb 0.00 in0.0 mm 0.00 in0.0 mm 0.00 in0.0 mm
03:48 AM 44.2°F6.8°C 29.5°F-1.4°C 56% 6.9 mph WNW11.1 kmh WNW 13.9 mph22.4 kmh 29.69 in1005.4 mb 0.00 in0.0 mm 0.00 in0.0 mm 0.00 in0.0 mm
03:43 AM 44.1°F6.7°C 29.3°F-1.5°C 56% 7.2 mph WNW11.6 kmh WNW 10.5 mph16.9 kmh 29.69 in1005.4 mb 0.00 in0.0 mm 0.00 in0.0 mm 0.00 in0.0 mm
03:38 AM 44.1°F6.7°C 29.3°F-1.5°C 56% 5.1 mph NW8.2 kmh NW 12.8 mph20.6 kmh 29.69 in1005.4 mb 0.00 in0.0 mm 0.00 in0.0 mm 0.00 in0.0 mm
03:33 AM 44.1°F6.7°C 29.3°F-1.5°C 56% 6.5 mph NW10.5 kmh NW 14.8 mph23.8 kmh 29.69 in1005.4 mb 0.00 in0.0 mm 0.00 in0.0 mm 0.00 in0.0 mm
03:28 AM 44.1°F6.7°C 29.3°F-1.5°C 56% 6.3 mph NW10.1 kmh NW 11.6 mph18.7 kmh 29.70 in1005.8 mb 0.00 in0.0 mm 0.00 in0.0 mm 0.00 in0.0 mm
03:23 AM 44.1°F6.7°C 29.3°F-1.5°C 56% 6.5 mph NW10.5 kmh NW 14.8 mph23.8 kmh 29.70 in1005.8 mb 0.00 in0.0 mm 0.00 in0.0 mm 0.00 in0.0 mm
03:18 AM 43.9°F6.6°C 29.1°F-1.6°C 56% 9.6 mph W15.4 kmh W 17.0 mph27.4 kmh 29.70 in1005.8 mb 0.00 in0.0 mm 0.00 in0.0 mm 0.00 in0.0 mm
03:13 AM 43.9°F6.6°C 29.1°F-1.6°C 56% 11.6 mph WNW18.7 kmh WNW 19.0 mph30.6 kmh 29.69 in1005.4 mb 0.00 in0.0 mm 0.00 in0.0 mm 0.00 in0.0 mm
03:08 AM 44.1°F6.7°C 29.8°F-1.2°C 57% 11.9 mph WSW19.2 kmh WSW 18.1 mph29.1 kmh 29.69 in1005.4 mb 0.00 in0.0 mm 0.00 in0.0 mm 0.00 in0.0 mm
03:02 AM 44.1°F6.7°C 29.8°F-1.2°C 57% 7.8 mph W12.6 kmh W 14.8 mph23.8 kmh 29.70 in1005.8 mb 0.00 in0.0 mm 0.00 in0.0 mm 0.00 in0.0 mm
02:57 AM 44.4°F6.9°C 29.7°F-1.3°C 56% 11.4 mph SSW18.3 kmh SSW 15.9 mph25.6 kmh 29.70 in1005.8 mb 0.00 in0.0 mm 0.00 in0.0 mm 0.00 in0.0 mm
02:52 AM 44.8°F7.1°C 28.8°F-1.8°C 53% 7.4 mph SSW11.9 kmh SSW 8.5 mph13.7 kmh 29.70 in1005.8 mb 0.00 in0.0 mm 0.00 in0.0 mm 0.00 in0.0 mm
02:47 AM 44.8°F7.1°C 28.8°F-1.8°C 53% 6.5 mph WNW10.5 kmh WNW 10.5 mph16.9 kmh 29.69 in1005.4 mb 0.00 in0.0 mm 0.00 in0.0 mm 0.00 in0.0 mm
02:42 AM 44.8°F7.1°C 29.1°F-1.6°C 54% 1.1 mph N1.8 kmh N 5.4 mph8.7 kmh 29.70 in1005.8 mb 0.00 in0.0 mm 0.00 in0.0 mm 0.00 in0.0 mm
02:37 AM 44.8°F7.1°C 28.8°F-1.8°C 53% 2.0 mph N3.2 kmh N 5.4 mph8.7 kmh 29.70 in1005.8 mb 0.00 in0.0 mm 0.00 in0.0 mm 0.00 in0.0 mm
02:32 AM 45.0°F7.2°C 28.9°F-1.7°C 53% 7.2 mph NW11.6 kmh NW 14.8 mph23.8 kmh 29.68 in1005.1 mb 0.00 in0.0 mm 0.00 in0.0 mm 0.00 in0.0 mm
02:27 AM 45.0°F7.2°C 28.9°F-1.7°C 53% 7.8 mph NW12.6 kmh NW 10.5 mph16.9 kmh 29.68 in1005.1 mb 0.00 in0.0 mm 0.00 in0.0 mm 0.00 in0.0 mm
02:22 AM 44.8°F7.1°C 28.8°F-1.8°C 53% 0.4 mph 0.6 kmh 4.3 mph6.9 kmh 29.68 in1005.1 mb 0.00 in0.0 mm 0.00 in0.0 mm 0.00 in0.0 mm
02:17 AM 44.8°F7.1°C 28.8°F-1.8°C 53% 1.3 mph 2.1 kmh 14.8 mph23.8 kmh 29.68 in1005.1 mb 0.00 in0.0 mm 0.00 in0.0 mm 0.00 in0.0 mm
02:12 AM 44.8°F7.1°C 28.8°F-1.8°C 53% 8.1 mph NNW13.0 kmh NNW 11.6 mph18.7 kmh 29.67 in1004.7 mb 0.00 in0.0 mm 0.00 in0.0 mm 0.00 in0.0 mm
02:07 AM 44.6°F7.0°C 28.9°F-1.7°C 54% Calm Calm 5.4 mph8.7 kmh 29.67 in1004.7 mb 0.00 in0.0 mm 0.00 in0.0 mm 0.00 in0.0 mm
02:02 AM 44.4°F6.9°C 28.8°F-1.8°C 54% 3.8 mph ENE6.1 kmh ENE 20.1 mph32.3 kmh 29.67 in1004.7 mb 0.00 in0.0 mm 0.00 in0.0 mm 0.00 in0.0 mm
01:57 AM 44.1°F6.7°C 28.9°F-1.7°C 55% 16.6 mph NNW26.7 kmh NNW 23.3 mph37.5 kmh 29.65 in1004.1 mb 0.00 in0.0 mm 0.00 in0.0 mm 0.00 in0.0 mm
01:52 AM 43.7°F6.5°C 29.1°F-1.6°C 56% 17.2 mph NNW27.7 kmh NNW 24.4 mph39.3 kmh 29.65 in1004.1 mb 0.00 in0.0 mm 0.00 in0.0 mm 0.00 in0.0 mm
01:47 AM 43.5°F6.4°C 29.3°F-1.5°C 57% 12.8 mph NW20.6 kmh NW 21.3 mph34.3 kmh 29.65 in1004.1 mb 0.00 in0.0 mm 0.00 in0.0 mm 0.00 in0.0 mm
01:42 AM 43.3°F6.3°C 29.5°F-1.4°C 58% 11.6 mph NW18.7 kmh NW 19.0 mph30.6 kmh 29.66 in1004.4 mb 0.00 in0.0 mm 0.00 in0.0 mm 0.00 in0.0 mm
01:37 AM 43.3°F6.3°C 29.5°F-1.4°C 58% 11.4 mph NW18.3 kmh NW 19.0 mph30.6 kmh 29.67 in1004.7 mb 0.00 in0.0 mm 0.00 in0.0 mm 0.00 in0.0 mm
01:32 AM 43.2°F6.2°C 29.8°F-1.2°C 59% 12.3 mph NW19.8 kmh NW 19.0 mph30.6 kmh 29.67 in1004.7 mb 0.00 in0.0 mm 0.00 in0.0 mm 0.00 in0.0 mm
01:27 AM 43.0°F6.1°C 30.0°F-1.1°C 60% 13.6 mph NW21.9 kmh NW 23.3 mph37.5 kmh 29.67 in1004.7 mb 0.00 in0.0 mm 0.00 in0.0 mm 0.00 in0.0 mm
01:22 AM 43.0°F6.1°C 30.4°F-0.9°C 61% 13.0 mph NW20.9 kmh NW 17.0 mph27.4 kmh 29.67 in1004.7 mb 0.00 in0.0 mm 0.00 in0.0 mm 0.00 in0.0 mm
01:17 AM 43.2°F6.2°C 30.6°F-0.8°C 61% 11.4 mph NW18.3 kmh NW 14.8 mph23.8 kmh 29.68 in1005.1 mb 0.00 in0.0 mm 0.00 in0.0 mm 0.00 in0.0 mm
01:12 AM 43.3°F6.3°C 30.4°F-0.9°C 60% 9.6 mph WNW15.4 kmh WNW 15.9 mph25.6 kmh 29.68 in1005.1 mb 0.00 in0.0 mm 0.00 in0.0 mm 0.00 in0.0 mm
01:07 AM 43.9°F6.6°C 30.0°F-1.1°C 58% 7.8 mph NW12.6 kmh NW 11.6 mph18.7 kmh 29.68 in1005.1 mb 0.00 in0.0 mm 0.00 in0.0 mm 0.00 in0.0 mm
01:02 AM 44.4°F6.9°C 29.7°F-1.3°C 56% 7.4 mph W11.9 kmh W 12.8 mph20.6 kmh 29.68 in1005.1 mb 0.00 in0.0 mm 0.00 in0.0 mm 0.00 in0.0 mm
12:57 AM 45.1°F7.3°C 29.5°F-1.4°C 54% 6.3 mph WNW10.1 kmh WNW 10.5 mph16.9 kmh 29.68 in1005.1 mb 0.00 in0.0 mm 0.00 in0.0 mm 0.00 in0.0 mm
12:52 AM 45.7°F7.6°C 29.5°F-1.4°C 53% 4.9 mph WNW7.9 kmh WNW 10.5 mph16.9 kmh 29.68 in1005.1 mb 0.00 in0.0 mm 0.00 in0.0 mm 0.00 in0.0 mm
12:47 AM 46.0°F7.8°C 28.9°F-1.7°C 51% 6.3 mph NW10.1 kmh NW 9.6 mph15.4 kmh 29.68 in1005.1 mb 0.00 in0.0 mm 0.00 in0.0 mm 0.00 in0.0 mm
12:42 AM 46.2°F7.9°C 28.6°F-1.9°C 50% 8.1 mph NW13.0 kmh NW 12.8 mph20.6 kmh 29.68 in1005.1 mb 0.00 in0.0 mm 0.00 in0.0 mm 0.00 in0.0 mm
12:37 AM 46.4°F8.0°C 28.8°F-1.8°C 50% 5.1 mph NW8.2 kmh NW 8.5 mph13.7 kmh 29.68 in1005.1 mb 0.00 in0.0 mm 0.00 in0.0 mm 0.00 in0.0 mm
12:32 AM 46.6°F8.1°C 28.4°F-2.0°C 49% 5.1 mph NNW8.2 kmh NNW 10.5 mph16.9 kmh 29.68 in1005.1 mb 0.00 in0.0 mm 0.00 in0.0 mm 0.00 in0.0 mm
12:27 AM 46.8°F8.2°C 28.6°F-1.9°C 49% 5.1 mph NW8.2 kmh NW 8.5 mph13.7 kmh 29.67 in1004.7 mb 0.00 in0.0 mm 0.00 in0.0 mm 0.00 in0.0 mm
12:22 AM 46.9°F8.3°C 28.8°F-1.8°C 49% 6.9 mph NNW11.1 kmh NNW 11.6 mph18.7 kmh 29.68 in1005.1 mb 0.00 in0.0 mm 0.00 in0.0 mm 0.00 in0.0 mm
12:17 AM 46.9°F8.3°C 28.8°F-1.8°C 49% 10.3 mph NNW16.6 kmh NNW 14.8 mph23.8 kmh 29.68 in1005.1 mb 0.00 in0.0 mm 0.00 in0.0 mm 0.00 in0.0 mm
12:12 AM 46.9°F8.3°C 28.8°F-1.8°C 49% 10.3 mph NNW16.6 kmh NNW 14.8 mph23.8 kmh 29.68 in1005.1 mb 0.00 in0.0 mm 0.00 in0.0 mm 0.00 in0.0 mm
12:07 AM 46.9°F8.3°C 29.3°F-1.5°C 50% 11.4 mph NW18.3 kmh NW 22.4 mph36.0 kmh 29.68 in1005.1 mb 0.00 in0.0 mm 0.00 in0.0 mm 0.00 in0.0 mm
12:02 AM 46.9°F8.3°C 29.3°F-1.5°C 50% 8.3 mph NW13.4 kmh NW 21.3 mph34.3 kmh 29.68 in1005.1 mb 0.00 in0.0 mm 0.00 in0.0 mm 0.00 in0.0 mm